Архив погоды в Великих Луках

Метеограмма Великие Луки
Четверг, 21 Сентября
Время местн. Темп Ветер Видим Явления Облачность нижн/средн/верх Атм. давл. Влжн Точка росы ВНГО R Сост. почвы Tg s
Напр Скр Прв ур.ст ур.м изм
18:00 +14.9° В 3 11 10 км - облачно 757 766 -1.1 68% +9° 1.5 км - - - -
15:00 +15.4° В 2 - 10 км ливневый дождь облачно 758 767 -0.8 72% +10.4° 1.5 км - - - -
12:00 +15.4° В 1 - 10 км - облачно 759 768 +0.2 71% +10.1° более 2.5 км - - - -
09:00 +12.3° В 2 - 10 км - переменная облачность 758 768 -0.3 84% +9.7° 1.5 км 0 Влажная (без луж) - -
06:00 +9.5° штиль 0 - 10 км - облачно 759 768 +0.1 98% +9.2° 1 км - - - -
03:00 +9.7° штиль 0 - 10 км - облачно с прояснениями 759 768 +0.1 100% +9.7° 1 км - - - -
00:00 +10.7° штиль 0 - 10 км - облачно 759 768 +0.3 99% +10.6° 1 км - - - -
Среда, 20 Сентября
Время местн. Темп Ветер Видим Явления Облачность нижн/средн/верх Атм. давл. Влжн Точка росы ВНГО R Сост. почвы Tg s
Напр Скр Прв ур.ст ур.м изм
21:00 +11.4° штиль 0 - 10 км небо без изменений {ливневые осадки} облачно 758 768 +0.4 98% +11.1° 1 км 0 - - -
18:00 +13.6° штиль 0 - 10 км - облачно 758 767 +0.1 87% +11.4° 1 км - - - -
15:00 +15° Ю 1 - 10 км - облачно 758 767 +0.3 71% +9.7° 1 км - - - -
12:00 +16.1° Ю 1 - 10 км - облачно 758 767 +0.7 67% +10° 1.5 км - - - -
09:00 +10° штиль 0 - 10 км - облачно 757 766 +0.9 99% +9.8° 1 км 0 Сырая (есть малые или большие лужи) - -
06:00 +7.4° Ю,Ю-З 1 - 10 км - ясно 756 766 +0.6 100% +7.4° более 2.5 км - - - -
03:00 +7.5° Ю,Ю-З 1 - 10 км - ясно 755 765 +0.8 100% +7.5° более 2.5 км - - - -
00:00 +8.9° Ю,Ю-З 1 - 10 км - ясно 755 764 +1 99% +8.8° более 2.5 км - - - -
Вторник, 19 Сентября
Время местн. Темп Ветер Видим Явления Облачность нижн/средн/верх Атм. давл. Влжн Точка росы ВНГО R Сост. почвы Tg s
Напр Скр Прв ур.ст ур.м изм
21:00 +9.4° Ю,Ю-З 1 - 10 км - ясно 754 763 +1.3 95% +8.7° более 2.5 км 0 - - -
18:00 +12.9° Ю,Ю-З 2 - 10 км - облачно 752 762 +1.3 76% +8.8° 1 км - - - -
15:00 +13.6° З,Ю-З 4 - 10 км - облачно 751 760 +2.4 68% +7.8° 1 км - - - -
12:00 +13.1° З,Ю-З 5 11 10 км - облачно с прояснениями 749 758 +2.9 73% +8.4° 1 км - - - -
09:00 +10.2° З 5 10 10 км небо без изменений {ливневые осадки} облачно 746 755 +4.1 83% +7.5° 1 км 2 Сырая (есть малые или большие лужи) - -
06:00 +10.4° З 4 12 10 км небо без изменений {ливневые осадки} облачно 742 751 +3.1 94% +9.4° 1 км - - - -
03:00 +11.9° Ю,Ю-З 3 - 4 км слабый ливневый дождь облачно 739 748 +0.6 99% +11.7° 1 км - - - -
00:00 +11.5° Ю 2 - 4 км слабый ливневый дождь облачно 738 747 -0.5 98% +11.2° 1 км - - - -
Понедельник, 18 Сентября
Время местн. Темп Ветер Видим Явления Облачность нижн/средн/верх Атм. давл. Влжн Точка росы ВНГО R Сост. почвы Tg s
Напр Скр Прв ур.ст ур.м изм
21:00 +11.4° Ю 3 - 4 км слабый ливневый дождь облачно 738 748 -1.7 97% +11° 1 км 1 - - -
18:00 +13.3° Ю 3 12 4 км слабый ливневый дождь облачно 740 749 -0.2 76% +9.1° 1 км - - - -
15:00 +17.7° Ю,Ю-З 4 10 10 км - преимущественно облачно 740 750 -0.4 59% +9.7° 1 км - - - -